Marche, Arkansas
Current Conditions -  °F | °C
As of 9:53 AM on Friday 21 Nov 2014 (Local Time) from KLIT Reporting Station
Drizzle Drizzle  
Wind Chill: 38°   Ceiling: 400
Heat Index: 43°   Visibility: 3mi
Dew Point: 40°   Wind: 8mph
Humidity: 89%   Direction: 70°ENE
Pressure: 30.31"   Gusts: NA
Location:  34.757°N, 92.1411°W
Report Text: KLIT 211553Z 07007KT 3SM -DZ BR OVC004 06/04 A3031 RMK AO2 RAE44DZB44 SLP268 CIG RGD P0002 T00610044
Loading
Personal Weather Stations






























Interactive Weather Map New forecast layout! Learn more

10-Day Weather Forecast

Advertisements
Track Severe Weather on mobile